Time;durP1;ratioP1;P1;durP2;ratioP2;P2;SDS_P1;SDS_P2;PMS_P1;PMS_P2;Temp;Humidity;BMP_temperature;BMP_pressure;BME280_temperature;BME280_humidity;BME280_pressure;Samples;Min_cycle;Max_cycle;Signal;HPM_P1;HPM_P2
2023/03/09 00:02:48;;;;;;;23.63;12.48;;;;;;;0.31;100.00;98924.03;5082704;28;20266;-89
2023/03/09 00:05:34;;;;;;;27.05;13.75;;;;;;;0.34;100.00;98924.50;5078697;28;20036;-90
2023/03/09 00:08:10;;;;;;;27.60;13.93;;;;;;;0.24;100.00;98904.53;5095045;28;20040;-90
2023/03/09 00:10:43;;;;;;;25.55;12.65;;;;;;;0.23;100.00;98893.03;5063061;28;20025;-89
2023/03/09 00:13:41;;;;;;;28.33;14.15;;;;;;;0.20;100.00;98916.59;5061708;28;20035;-90
2023/03/09 00:16:19;;;;;;;22.10;11.80;;;;;;;0.19;100.00;98905.09;5067977;28;20051;-90
2023/03/09 00:18:45;;;;;;;23.23;12.55;;;;;;;0.17;100.00;98859.94;5077967;28;20066;-89
2023/03/09 00:21:34;;;;;;;26.85;13.23;;;;;;;0.22;100.00;98907.38;5078090;28;20484;-90
2023/03/09 00:24:09;;;;;;;25.30;12.98;;;;;;;0.26;100.00;98937.16;5079157;28;20024;-90
2023/03/09 00:26:59;;;;;;;25.88;13.18;;;;;;;0.22;100.00;98941.22;5078301;28;20028;-90
2023/03/09 00:29:30;;;;;;;25.65;13.32;;;;;;;0.22;100.00;98943.91;5081675;28;20396;-91
2023/03/09 00:32:19;;;;;;;26.13;13.10;;;;;;;0.27;100.00;98955.63;5078514;28;20119;-91
2023/03/09 00:34:52;;;;;;;26.00;13.75;;;;;;;0.21;100.00;98948.41;5065033;28;20047;-90
2023/03/09 00:37:45;;;;;;;;;;;;;;;;;;;;;
2023/03/09 00:40:14;;;;;;;25.60;13.07;;;;;;;0.22;100.00;98960.72;5095344;28;20020;-90
2023/03/09 00:46:04;;;;;;;27.50;13.93;;;;;;;0.28;100.00;98986.63;5111256;28;20376;-91
2023/03/09 00:48:39;;;;;;;28.85;13.43;;;;;;;0.22;100.00;98973.22;5097291;28;20044;-90
2023/03/09 00:51:19;;;;;;;28.25;14.35;;;;;;;0.21;100.00;98977.75;5081614;28;20046;-90
2023/03/09 00:54:12;;;;;;;29.83;14.13;;;;;;;0.21;100.00;98972.41;5098554;28;20039;-90
2023/03/09 00:56:38;;;;;;;27.52;14.10;;;;;;;0.25;100.00;98975.50;5083799;28;20127;-90
2023/03/09 00:59:17;;;;;;;;;;;;;;;;;;;;;
2023/03/09 01:04:33;;;;;;;27.77;14.65;;;;;;;0.28;100.00;98999.13;5100937;28;20085;-90
2023/03/09 01:07:09;;;;;;;28.77;14.90;;;;;;;0.28;100.00;99007.13;5097887;28;20036;-90
2023/03/09 01:09:40;;;;;;;29.00;13.75;;;;;;;0.30;100.00;99018.44;5097146;28;20050;-89
2023/03/09 01:12:14;;;;;;;27.27;14.15;;;;;;;0.32;100.00;99040.41;5081387;28;20126;-89
2023/03/09 01:14:55;;;;;;;;;;;;;;;;;;;;;
2023/03/09 01:20:33;;;;;;;25.00;12.88;;;;;;;0.39;100.00;99033.28;5111865;28;20067;-90
2023/03/09 01:23:02;;;;;;;24.40;12.55;;;;;;;0.39;100.00;99048.50;5097923;28;20463;-90
2023/03/09 01:25:36;;;;;;;27.48;13.57;;;;;;;0.41;100.00;99043.78;5097846;28;20035;-90
2023/03/09 01:28:34;;;;;;;;;;;;;;;;;;;;;
2023/03/09 01:31:14;;;;;;;24.95;13.10;;;;;;;0.39;100.00;99064.50;5102384;28;20093;-90
2023/03/09 01:33:47;;;;;;;23.83;12.73;;;;;;;0.41;100.00;99079.28;5100566;28;20028;-90
2023/03/09 01:39:30;;;;;;;27.02;13.32;;;;;;;0.50;100.00;99071.94;5116041;28;20521;-91
2023/03/09 01:42:02;;;;;;;24.80;12.93;;;;;;;0.46;100.00;99074.19;5080138;28;20126;-90
2023/03/09 01:44:27;;;;;;;25.52;12.65;;;;;;;0.51;100.00;99085.09;5097055;28;20510;-90
2023/03/09 01:47:12;;;;;;;26.98;12.77;;;;;;;0.44;100.00;99073.53;5096813;28;20044;-91
2023/03/09 01:49:55;;;;;;;25.53;13.23;;;;;;;0.46;100.00;99076.06;5097045;28;20114;-90
2023/03/09 01:53:00;;;;;;;;;;;;;;;;;;;;;
2023/03/09 01:55:55;;;;;;;28.48;13.45;;;;;;;0.47;100.00;99086.53;5115572;28;20033;-90
2023/03/09 01:58:49;;;;;;;28.15;13.20;;;;;;;0.56;100.00;99102.38;5097619;28;20028;-90
2023/03/09 02:01:43;;;;;;;;;;;;;;;;;;;;;
2023/03/09 02:04:42;;;;;;;;;;;;;;;;;;;;;
2023/03/09 02:07:16;;;;;;;26.60;13.45;;;;;;;0.65;100.00;99110.06;5115055;28;20030;-90
2023/03/09 02:10:11;;;;;;;25.67;12.73;;;;;;;0.68;100.00;99123.03;5097172;28;20030;-90
2023/03/09 02:12:52;;;;;;;;;;;;;;;;;;;;;
2023/03/09 02:15:32;;;;;;;28.48;14.18;;;;;;;0.63;100.00;99108.59;5099623;28;20031;-90
2023/03/09 02:17:58;;;;;;;28.27;14.40;;;;;;;0.61;100.00;99095.44;5116034;28;20036;-90
2023/03/09 02:21:12;;;;;;;26.75;14.10;;;;;;;0.72;100.00;99110.09;5096210;28;20438;-90
2023/03/09 02:24:02;;;;;;;26.45;12.80;;;;;;;0.72;100.00;99115.44;5097176;28;20042;-90
2023/03/09 02:26:50;;;;;;;27.58;14.30;;;;;;;0.73;100.00;99116.28;5115217;28;20060;-90
2023/03/09 02:29:19;;;;;;;29.98;14.50;;;;;;;0.73;100.00;99111.75;5096022;28;20118;-90
2023/03/09 02:32:13;;;;;;;28.80;14.38;;;;;;;0.68;100.00;99107.00;5063619;28;20051;-90
2023/03/09 02:34:54;;;;;;;;;;;;;;;;;;;;;
2023/03/09 02:37:46;;;;;;;29.35;14.90;;;;;;;0.69;100.00;99122.03;5115103;28;20044;-91
2023/03/09 02:40:41;;;;;;;29.83;13.57;;;;;;;0.72;100.00;99136.00;5072305;28;20032;-91
2023/03/09 02:53:08;;;;;;;30.55;14.80;;;;;;;0.70;100.00;99137.00;4992286;28;20041;-91
2023/03/09 02:55:34;;;;;;;29.60;15.23;;;;;;;0.70;100.00;99138.84;5047920;28;20494;-91
2023/03/09 02:58:13;;;;;;;29.93;14.30;;;;;;;0.72;100.00;99133.31;5054655;28;20047;-91
2023/03/09 03:01:03;;;;;;;;;;;;;;;;;;;;;
2023/03/09 03:03:38;;;;;;;33.35;16.63;;;;;;;0.71;100.00;99119.16;5057892;28;20036;-90
2023/03/09 03:06:39;;;;;;;;;;;;;;;;;;;;;
2023/03/09 03:09:18;;;;;;;;;;;;;;;;;;;;;
2023/03/09 03:12:05;;;;;;;31.92;15.15;;;;;;;0.72;100.00;99136.81;4997453;28;20034;-91
2023/03/09 03:14:51;;;;;;;31.25;13.80;;;;;;;0.80;100.00;99149.22;5074978;28;20041;-90
2023/03/09 03:17:39;;;;;;;31.98;15.05;;;;;;;0.75;100.00;99139.09;5089552;28;20036;-91
2023/03/09 03:20:14;;;;;;;29.88;13.98;;;;;;;0.74;100.00;99134.78;5079871;28;20032;-91
2023/03/09 03:22:59;;;;;;;32.72;14.98;;;;;;;0.75;100.00;99141.75;5088833;28;20031;-91
2023/03/09 03:25:38;;;;;;;31.77;16.23;;;;;;;0.76;100.00;99145.25;5096590;28;20040;-91
2023/03/09 03:28:09;;;;;;;31.90;15.27;;;;;;;0.75;100.00;99154.28;5097038;28;20042;-91
2023/03/09 03:30:47;;;;;;;34.97;15.77;;;;;;;0.72;100.00;99150.16;5096630;28;20032;-91
2023/03/09 03:33:28;;;;;;;30.98;14.63;;;;;;;0.71;100.00;99172.53;5064992;28;20210;-91
2023/03/09 03:36:05;;;;;;;;;;;;;;;;;;;;;
2023/03/09 03:39:08;;;;;;;34.90;16.75;;;;;;;0.73;100.00;99207.06;5115219;28;20027;-91
2023/03/09 03:42:35;;;;;;;32.70;15.63;;;;;;;0.73;100.00;99207.06;5081362;28;20073;-91
2023/03/09 03:45:20;;;;;;;35.17;15.77;;;;;;;0.82;100.00;99225.41;5112185;28;20036;-91
2023/03/09 03:51:13;;;;;;;33.05;15.70;;;;;;;0.76;100.00;99220.84;5000293;28;20069;-91
2023/03/09 03:53:57;;;;;;;36.22;17.00;;;;;;;0.75;100.00;99199.66;5075793;28;20046;-91
2023/03/09 03:56:36;;;;;;;;;;;;;;;;;;;;;
2023/03/09 03:59:10;;;;;;;35.33;17.17;;;;;;;0.86;100.00;99233.88;5094375;28;20375;-91
2023/03/09 04:01:51;;;;;;;;;;;;;;;;;;;;;
2023/03/09 04:04:50;;;;;;;;;;;;;;;;;;;;;
2023/03/09 04:07:31;;;;;;;;;;;;;;;;;;;;;
2023/03/09 04:13:07;;;;;;;40.45;18.13;;;;;;;0.77;100.00;99230.50;5031694;28;20092;-90
2023/03/09 04:15:44;;;;;;;43.75;18.17;;;;;;;0.75;100.00;99234.38;5016090;28;20026;-91
2023/03/09 04:18:22;;;;;;;;;;;;;;;;;;;;;
2023/03/09 04:21:13;;;;;;;43.80;18.13;;;;;;;0.70;100.00;99233.09;4965047;28;20585;-91
2023/03/09 04:30:59;;;;;;;38.42;17.98;;;;;;;0.80;100.00;99261.34;5034988;28;20063;-91
2023/03/09 04:33:45;;;;;;;45.35;18.85;;;;;;;0.71;100.00;99247.28;5018199;28;20037;-90
2023/03/09 04:36:35;;;;;;;;;;;;;;;;;;;;;
2023/03/09 04:39:32;;;;;;;45.40;20.23;;;;;;;0.78;100.00;99258.84;5037621;28;20038;-90
2023/03/09 04:42:02;;;;;;;45.33;19.83;;;;;;;0.69;100.00;99257.31;5016229;28;20045;-91
2023/03/09 04:58:50;;;;;;;46.97;19.42;;;;;;;0.69;100.00;99282.19;5078205;28;20106;-90
2023/03/09 05:01:33;;;;;;;45.38;19.33;;;;;;;0.67;100.00;99278.88;5116473;28;20046;-91
2023/03/09 05:04:30;;;;;;;48.88;19.67;;;;;;;0.67;100.00;99280.72;5097811;28;20119;-91
2023/03/09 05:06:58;;;;;;;53.17;21.15;;;;;;;0.65;100.00;99294.25;5095743;28;20118;-91
2023/03/09 05:09:41;;;;;;;49.00;21.67;;;;;;;0.72;100.00;99296.16;5098117;28;20106;-91
2023/03/09 05:15:44;;;;;;;51.20;20.50;;;;;;;0.67;100.00;99312.75;5116131;28;20134;-90
2023/03/09 05:35:01;;;;;;;;;;;;;;;;;;;;;
2023/03/09 05:44:59;;;;;;;63.28;24.88;;;;;;;0.80;100.00;99342.25;5053519;28;20088;-91
2023/03/09 05:50:59;;;;;;;;;;;;;;;;;;;;;
2023/03/09 06:10:06;;;;;;;60.85;23.10;;;;;;;0.83;100.00;99373.13;4995850;28;20148;-90
2023/03/09 06:12:43;;;;;;;65.53;24.73;;;;;;;0.80;100.00;99365.47;4996568;28;20124;-90
2023/03/09 06:15:23;;;;;;;60.03;24.20;;;;;;;0.80;100.00;99352.13;5097899;28;20043;-91
2023/03/09 06:18:38;;;;;;;59.15;24.38;;;;;;;0.87;100.00;99364.53;5052023;28;20029;-91
2023/03/09 06:21:10;;;;;;;56.83;23.98;;;;;;;0.85;100.00;99382.56;5095480;28;20134;-89
2023/03/09 06:23:43;;;;;;;64.43;27.08;;;;;;;0.84;100.00;99378.25;5114911;28;20077;-89
2023/03/09 06:26:11;;;;;;;62.15;24.38;;;;;;;0.85;100.00;99377.22;5096589;28;20028;-89
2023/03/09 06:28:57;;;;;;;63.17;25.27;;;;;;;1.00;100.00;99398.53;5097926;28;20078;-91
2023/03/09 06:31:35;;;;;;;;;;;;;;;;;;;;;
2023/03/09 06:34:01;;;;;;;65.60;25.20;;;;;;;1.00;100.00;99384.38;5101749;28;20114;-90
2023/03/09 06:36:33;;;;;;;62.90;24.53;;;;;;;1.09;100.00;99395.78;5098726;28;20078;-90
2023/03/09 06:39:07;;;;;;;65.05;24.90;;;;;;;1.15;100.00;99403.88;5099089;28;20015;-90
2023/03/09 06:41:50;;;;;;;55.08;23.52;;;;;;;1.17;100.00;99422.38;5080585;28;20035;-91
2023/03/09 06:44:19;;;;;;;59.00;24.40;;;;;;;1.12;100.00;99406.06;5114719;28;20039;-90
2023/03/09 06:46:52;;;;;;;58.40;24.27;;;;;;;1.16;100.00;99415.38;5095950;28;20027;-89
2023/03/09 06:49:20;;;;;;;60.05;23.88;;;;;;;1.22;100.00;99423.44;5076154;28;20036;-89
2023/03/09 06:51:45;;;;;;;57.88;24.98;;;;;;;1.20;100.00;99424.69;5076093;28;20490;-89
2023/03/09 07:05:04;;;;;;;57.00;22.83;;;;;;;1.42;100.00;99476.31;5093861;28;20115;-89
2023/03/09 07:10:59;;;;;;;55.67;23.90;;;;;;;1.34;100.00;99473.72;4992576;28;20043;-90
2023/03/09 07:17:21;;;;;;;56.60;23.20;;;;;;;1.43;100.00;99504.66;5093286;28;20086;-88
2023/03/09 07:19:58;;;;;;;59.88;22.10;;;;;;;1.35;100.00;99496.78;5074820;28;20150;-89
2023/03/09 07:22:31;;;;;;;54.63;22.85;;;;;;;1.38;100.00;99499.88;5093435;28;20043;-89
2023/03/09 07:25:02;;;;;;;61.07;24.10;;;;;;;1.49;100.00;99505.75;5058776;28;20039;-89
2023/03/09 07:27:30;;;;;;;58.25;24.70;;;;;;;1.55;100.00;99513.00;5076067;28;20028;-89
2023/03/09 07:30:01;;;;;;;54.75;23.23;;;;;;;1.58;100.00;99512.66;5093139;28;20451;-89
2023/03/09 07:32:31;;;;;;;55.92;23.55;;;;;;;1.62;100.00;99513.91;5074888;28;20475;-89
2023/03/09 07:35:02;;;;;;;56.65;23.52;;;;;;;1.66;100.00;99520.56;5075062;28;20086;-89
2023/03/09 07:37:27;;;;;;;53.73;23.00;;;;;;;1.63;100.00;99518.25;5075624;28;20464;-89
2023/03/09 07:39:53;;;;;;;52.92;22.98;;;;;;;1.64;100.00;99527.09;5074596;28;20020;-89
2023/03/09 07:42:28;;;;;;;53.83;23.97;;;;;;;1.66;100.00;99541.13;5058604;28;20033;-89
2023/03/09 07:44:59;;;;;;;56.47;22.67;;;;;;;1.65;100.00;99537.59;5076143;28;20091;-90
2023/03/09 07:51:46;;;;;;;45.47;20.27;;;;;;;1.75;100.00;99545.31;5116564;28;20113;-90
2023/03/09 07:54:17;;;;;;;50.67;21.27;;;;;;;1.82;100.00;99556.91;5098315;28;20044;-88
2023/03/09 07:56:55;;;;;;;;;;;;;;;;;;;;;
2023/03/09 07:59:20;;;;;;;47.97;21.45;;;;;;;1.91;100.00;99546.94;5116940;28;20024;-88
2023/03/09 08:02:06;;;;;;;51.03;21.27;;;;;;;2.06;100.00;99554.88;5117402;28;20102;-89
2023/03/09 08:04:35;;;;;;;52.30;21.33;;;;;;;2.21;100.00;99568.19;5101901;28;20038;-90
2023/03/09 08:07:14;;;;;;;59.58;27.30;;;;;;;2.24;100.00;99554.44;5099598;28;20027;-90
2023/03/09 08:20:47;;;;;;;55.85;23.70;;;;;;;2.37;100.00;99586.66;4996846;28;20633;-88
2023/03/09 08:26:46;;;;;;;49.55;21.67;;;;;;;2.44;100.00;99570.66;5009742;28;20139;-90
2023/03/09 08:32:46;;;;;;;51.50;20.17;;;;;;;2.67;100.00;99583.00;5117251;28;20114;-90
2023/03/09 08:48:51;;;;;;;46.38;19.92;;;;;;;3.09;100.00;99618.72;4995586;28;20406;-91
2023/03/09 08:55:27;;;;;;;46.42;19.63;;;;;;;3.18;100.00;99633.63;5017980;28;20079;-90
2023/03/09 08:57:56;;;;;;;48.85;20.75;;;;;;;3.22;100.00;99647.44;5073923;28;20106;-90
2023/03/09 09:00:27;;;;;;;51.25;21.40;;;;;;;3.17;100.00;99642.69;5060900;28;20464;-89
2023/03/09 09:02:58;;;;;;;48.45;21.13;;;;;;;3.01;100.00;99635.78;5077494;28;20024;-92
2023/03/09 09:05:27;;;;;;;49.20;20.00;;;;;;;3.02;100.00;99645.47;5077667;28;20036;-91
2023/03/09 09:28:02;;;;;;;50.90;21.35;;;;;;;3.40;100.00;99658.50;5047613;28;20047;-91
2023/03/09 09:58:20;;;;;;;47.13;20.75;;;;;;;3.91;100.00;99689.47;5049949;28;20106;-91
2023/03/09 10:04:56;;;;;;;;;;;;;;;;;;;;;
2023/03/09 10:11:41;;;;;;;52.63;22.02;;;;;;;4.04;100.00;99681.50;4955646;28;20536;-90
2023/03/09 11:17:51;;;;;;;42.72;19.10;;;;;;;5.79;100.00;99691.22;5049640;28;20503;-90
2023/03/09 12:15:52;;;;;;;;;;;;;;;;;;;;;
2023/03/09 14:07:14;;;;;;;;;;;;;;;;;;;;;
2023/03/09 14:13:41;;;;;;;22.08;9.73;;;;;;;4.55;100.00;99518.19;4996062;28;20053;-91
2023/03/09 14:16:24;;;;;;;21.33;10.05;;;;;;;4.63;100.00;99503.69;5038727;28;20037;-92
2023/03/09 14:18:58;;;;;;;19.65;9.20;;;;;;;4.83;100.00;99503.66;5071832;28;20046;-91
2023/03/09 14:22:08;;;;;;;23.08;10.88;;;;;;;4.89;100.00;99494.75;5034212;28;20155;-89
2023/03/09 14:45:26;;;;;;;23.35;9.85;;;;;;;5.10;100.00;99507.09;5072456;28;20048;-92
2023/03/09 14:50:46;;;;;;;22.05;10.75;;;;;;;4.87;100.00;99505.72;5058580;28;20566;-91
2023/03/09 14:53:36;;;;;;;21.85;10.75;;;;;;;4.70;100.00;99508.00;5071678;28;20029;-91
2023/03/09 14:59:28;;;;;;;;;;;;;;;;;;;;;
2023/03/09 15:02:06;;;;;;;20.10;9.68;;;;;;;4.67;100.00;99513.00;5115172;28;20440;-92
2023/03/09 15:04:46;;;;;;;23.10;9.75;;;;;;;4.58;100.00;99480.16;5096927;28;20051;-92
2023/03/09 15:07:19;;;;;;;21.83;10.52;;;;;;;4.66;100.00;99473.72;5096239;28;20110;-92
2023/03/09 15:10:10;;;;;;;22.92;10.57;;;;;;;4.73;100.00;99472.66;5096794;28;20050;-91
2023/03/09 15:12:57;;;;;;;;;;;;;;;;;;;;;
2023/03/09 15:15:55;;;;;;;23.63;10.00;;;;;;;4.85;100.00;99455.88;5102454;28;20042;-93
2023/03/09 15:19:09;;;;;;;19.48;9.40;;;;;;;4.86;100.00;99449.47;5118330;28;20076;-92
2023/03/09 15:21:50;;;;;;;;;;;;;;;;;;;;;
2023/03/09 15:24:16;;;;;;;22.80;11.10;;;;;;;4.96;100.00;99451.72;5118106;28;20110;-92
2023/03/09 15:26:54;;;;;;;22.42;9.82;;;;;;;4.88;100.00;99442.03;5095072;28;20055;-91
2023/03/09 15:29:19;;;;;;;24.90;10.55;;;;;;;4.95;100.00;99442.00;5095706;28;20039;-92
2023/03/09 15:32:06;;;;;;;;;;;;;;;;;;;;;
2023/03/09 15:34:48;;;;;;;24.10;10.32;;;;;;;4.89;100.00;99420.31;5083193;28;20031;-93
2023/03/09 15:37:44;;;;;;;;;;;;;;;;;;;;;
2023/03/09 15:40:14;;;;;;;23.95;9.95;;;;;;;5.02;100.00;99422.13;5099903;28;20045;-92
2023/03/09 15:42:57;;;;;;;20.92;10.48;;;;;;;5.01;100.00;99403.53;5096198;28;20066;-93
2023/03/09 15:45:27;;;;;;;23.80;10.88;;;;;;;5.05;100.00;99399.38;5114382;28;20062;-93
2023/03/09 15:47:55;;;;;;;23.52;10.60;;;;;;;5.10;100.00;99397.66;5114738;28;20035;-92
2023/03/09 15:50:30;;;;;;;24.98;11.38;;;;;;;5.09;100.00;99376.38;5096491;28;20110;-92
2023/03/09 15:53:13;;;;;;;23.75;10.95;;;;;;;5.14;100.00;99384.63;5097502;28;20041;-92
2023/03/09 15:55:41;;;;;;;23.50;11.10;;;;;;;5.20;100.00;99386.44;5094707;28;20032;-93
2023/03/09 15:58:10;;;;;;;27.27;11.00;;;;;;;5.18;100.00;99377.78;5095144;28;20032;-89
2023/03/09 16:00:55;;;;;;;;;;;;;;;;;;;;;
2023/03/09 16:03:35;;;;;;;20.45;9.90;;;;;;;5.25;100.00;99383.09;5114446;28;20065;-92
2023/03/09 16:06:06;;;;;;;20.85;9.80;;;;;;;5.11;100.00;99371.63;5079641;28;20050;-90
2023/03/09 16:08:39;;;;;;;23.40;10.32;;;;;;;5.05;100.00;99367.13;5095689;28;20067;-91
2023/03/09 16:11:04;;;;;;;23.15;10.88;;;;;;;5.05;100.00;99364.41;5096626;28;20114;-90
2023/03/09 16:13:35;;;;;;;21.20;10.43;;;;;;;5.12;100.00;99372.44;5116991;28;20063;-91
2023/03/09 16:16:01;;;;;;;21.77;9.95;;;;;;;5.09;100.00;99369.16;5099460;28;20198;-90
2023/03/09 16:18:34;;;;;;;26.33;10.68;;;;;;;5.06;100.00;99356.13;5098819;28;20027;-92
2023/03/09 16:21:01;;;;;;;26.40;11.10;;;;;;;4.98;100.00;99342.13;5099872;28;20122;-91
2023/03/09 16:26:51;;;;;;;21.57;9.93;;;;;;;4.94;100.00;99336.34;5116900;27;20043;-90
2023/03/09 16:33:01;;;;;;;25.55;10.30;;;;;;;4.91;100.00;99340.28;5094566;28;20031;-89
2023/03/09 16:35:29;;;;;;;25.65;11.07;;;;;;;4.85;100.00;99321.50;5078031;28;20047;-90
2023/03/09 16:37:55;;;;;;;23.02;10.50;;;;;;;4.77;100.00;99313.69;5076949;28;20321;-90
2023/03/09 16:40:33;;;;;;;;;;;;;;;;;;;;;
2023/03/09 16:43:04;;;;;;;26.30;10.85;;;;;;;4.80;100.00;99319.47;5095013;28;20032;-90
2023/03/09 16:45:53;;;;;;;25.40;10.85;;;;;;;4.71;100.00;99310.00;5077370;28;20085;-91
2023/03/09 16:48:24;;;;;;;23.80;10.13;;;;;;;4.73;100.00;99303.38;5077381;28;20032;-90
2023/03/09 16:50:54;;;;;;;25.25;12.25;;;;;;;4.72;100.00;99307.13;5076639;28;20047;-89
2023/03/09 16:53:37;;;;;;;25.92;11.93;;;;;;;4.71;100.00;99301.94;5093911;28;20028;-90
2023/03/09 16:56:13;;;;;;;28.20;12.23;;;;;;;4.72;100.00;99298.22;5093926;28;20036;-90
2023/03/09 16:58:56;;;;;;;26.67;11.60;;;;;;;4.65;100.00;99276.78;5061104;28;20193;-90
2023/03/09 17:01:33;;;;;;;27.42;12.35;;;;;;;4.65;100.00;99278.63;5094948;28;20039;-90
2023/03/09 17:04:06;;;;;;;25.65;12.18;;;;;;;4.58;100.00;99270.63;5099299;28;20096;-90
2023/03/09 17:06:37;;;;;;;27.23;11.95;;;;;;;4.57;100.00;99267.09;5084524;28;20054;-91
2023/03/09 17:09:20;;;;;;;29.20;12.82;;;;;;;4.61;100.00;99264.81;5084447;28;20099;-91
2023/03/09 17:11:57;;;;;;;25.95;12.20;;;;;;;4.62;100.00;99268.31;5121739;28;20081;-91
2023/03/09 17:14:32;;;;;;;29.75;11.95;;;;;;;4.53;100.00;99252.47;5105776;28;20031;-91
2023/03/09 17:17:00;;;;;;;32.38;13.05;;;;;;;4.50;100.00;99246.69;5087860;28;20039;-91
2023/03/09 17:19:26;;;;;;;28.50;12.25;;;;;;;4.50;100.00;99246.69;5103069;28;20027;-91
2023/03/09 17:21:57;;;;;;;30.23;12.67;;;;;;;4.47;100.00;99242.56;5101904;28;20085;-91
2023/03/09 17:24:59;;;;;;;;;;;;;;;;;;;;;
2023/03/09 17:27:25;;;;;;;33.55;13.63;;;;;;;4.42;100.00;99249.63;5101203;28;20087;-90
2023/03/09 17:30:14;;;;;;;27.27;13.00;;;;;;;4.45;100.00;99249.19;5098072;28;20482;-90
2023/03/09 17:32:50;;;;;;;28.02;12.93;;;;;;;4.39;100.00;99240.94;5098804;28;20031;-91
2023/03/09 17:35:19;;;;;;;30.05;13.48;;;;;;;4.48;100.00;99248.75;5099858;28;20059;-91
2023/03/09 17:38:18;;;;;;;32.75;13.52;;;;;;;4.41;100.00;99232.66;5102949;28;20024;-91
2023/03/09 17:40:50;;;;;;;30.98;13.85;;;;;;;4.51;100.00;99248.34;5104055;28;20027;-90
2023/03/09 17:44:04;;;;;;;33.72;13.27;;;;;;;4.51;100.00;99234.91;5099344;28;20064;-91
2023/03/09 17:46:50;;;;;;;33.67;13.65;;;;;;;4.43;100.00;99221.72;5097665;28;20388;-91
2023/03/09 17:49:28;;;;;;;31.88;13.95;;;;;;;4.40;100.00;99214.94;5003758;28;20482;-91
2023/03/09 17:55:27;;;;;;;29.60;13.60;;;;;;;4.43;100.00;99208.28;5014467;28;20104;-91
2023/03/09 18:01:51;;;;;;;29.73;13.38;;;;;;;4.47;100.00;99201.44;5115654;28;20081;-91
2023/03/09 18:04:30;;;;;;;31.88;13.75;;;;;;;4.50;100.00;99211.75;5101777;28;20038;-91
2023/03/09 18:06:55;;;;;;;31.02;13.77;;;;;;;4.49;100.00;99204.75;5081612;28;20074;-91
2023/03/09 18:13:05;;;;;;;31.45;13.60;;;;;;;4.51;100.00;99208.03;5115156;28;20054;-91
2023/03/09 18:15:44;;;;;;;31.70;14.02;;;;;;;4.49;100.00;99199.38;5083194;28;20118;-91
2023/03/09 18:18:56;;;;;;;33.67;14.27;;;;;;;4.47;100.00;99190.72;5097998;28;20039;-92
2023/03/09 18:21:26;;;;;;;31.25;13.65;;;;;;;4.42;100.00;99180.63;5097677;28;20031;-91
2023/03/09 18:24:03;;;;;;;32.43;14.23;;;;;;;4.46;100.00;99175.63;5114902;28;20039;-91
2023/03/09 18:26:34;;;;;;;32.75;13.88;;;;;;;4.47;100.00;99177.28;5080661;28;20051;-91
2023/03/09 18:29:19;;;;;;;;;;;;;;;;;;;;;
2023/03/09 18:32:01;;;;;;;31.63;14.00;;;;;;;4.47;100.00;99167.34;5099022;28;20042;-91
2023/03/09 18:34:46;;;;;;;35.97;13.95;;;;;;;4.50;100.00;99183.06;5052582;28;20374;-91
2023/03/09 18:37:19;;;;;;;30.47;14.13;;;;;;;4.49;100.00;99167.97;5106848;28;20053;-91
2023/03/09 18:39:53;;;;;;;30.42;12.57;;;;;;;4.51;100.00;99165.88;5079716;28;20066;-91
2023/03/09 18:42:21;;;;;;;31.35;13.73;;;;;;;4.51;100.00;99181.19;5080653;28;20387;-91
2023/03/09 18:44:53;;;;;;;29.75;12.18;;;;;;;4.40;100.00;99142.44;5096385;28;20114;-91
2023/03/09 18:47:32;;;;;;;;;;;;;;;;;;;;;
2023/03/09 18:50:16;;;;;;;35.47;14.60;;;;;;;4.46;100.00;99152.28;5115029;28;20364;-91
2023/03/09 18:52:46;;;;;;;32.25;13.75;;;;;;;4.48;100.00;99149.38;5097063;28;20024;-91
2023/03/09 18:55:22;;;;;;;31.02;14.00;;;;;;;4.42;100.00;99140.34;5095776;28;20031;-91
2023/03/09 18:58:10;;;;;;;33.78;14.20;;;;;;;4.39;100.00;99122.78;5035188;28;20072;-91
2023/03/09 19:00:40;;;;;;;34.13;13.55;;;;;;;4.43;100.00;99119.66;5096682;28;20049;-91
2023/03/09 19:03:13;;;;;;;32.67;13.97;;;;;;;4.42;100.00;99120.72;5114110;28;20103;-91
2023/03/09 19:05:48;;;;;;;34.42;13.80;;;;;;;4.48;100.00;99117.16;5079375;28;20028;-91
2023/03/09 19:08:14;;;;;;;31.63;13.52;;;;;;;4.50;100.00;99117.75;5095905;28;20039;-91
2023/03/09 19:10:43;;;;;;;28.70;12.97;;;;;;;4.46;100.00;99111.16;5096090;28;20038;-91
2023/03/09 19:13:16;;;;;;;37.95;14.77;;;;;;;4.49;100.00;99108.06;5096193;28;20035;-90
2023/03/09 19:15:47;;;;;;;32.95;14.85;;;;;;;4.52;100.00;99113.81;5096071;28;20132;-91
2023/03/09 19:18:22;;;;;;;35.30;15.02;;;;;;;4.44;100.00;99095.28;5096174;28;20028;-91
2023/03/09 19:20:55;;;;;;;32.15;14.55;;;;;;;4.39;100.00;99079.81;5096586;28;20016;-91
2023/03/09 19:23:30;;;;;;;34.27;15.50;;;;;;;4.46;100.00;99103.09;5113811;28;20039;-91
2023/03/09 19:26:10;;;;;;;30.77;14.27;;;;;;;4.35;100.00;99083.97;5079906;28;20042;-91
2023/03/09 19:28:36;;;;;;;30.15;13.68;;;;;;;4.36;100.00;99066.03;5083496;28;20063;-91
2023/03/09 19:31:28;;;;;;;33.43;13.07;;;;;;;4.39;100.00;99079.81;5075775;28;20032;-91
2023/03/09 19:34:01;;;;;;;34.33;15.00;;;;;;;4.37;100.00;99057.75;5094200;28;20077;-91
2023/03/09 19:36:36;;;;;;;30.73;13.70;;;;;;;4.31;100.00;99053.25;5093744;28;20082;-91
2023/03/09 19:39:10;;;;;;;31.77;13.55;;;;;;;4.35;100.00;99049.06;5075545;28;20079;-91
2023/03/09 19:41:46;;;;;;;29.58;13.15;;;;;;;4.28;100.00;99026.84;5076114;28;20123;-91
2023/03/09 19:44:11;;;;;;;32.30;13.23;;;;;;;4.31;100.00;99028.25;5075465;28;20137;-91
2023/03/09 19:46:39;;;;;;;30.98;13.43;;;;;;;4.33;100.00;99028.88;5078062;28;20032;-91
2023/03/09 19:49:20;;;;;;;33.23;14.03;;;;;;;4.33;100.00;99026.19;5079564;28;20032;-91
2023/03/09 19:52:01;;;;;;;;;;;;;;;;;;;;;
2023/03/09 19:54:37;;;;;;;29.55;14.00;;;;;;;4.36;100.00;99015.00;5055414;28;20069;-91
2023/03/09 19:57:10;;;;;;;37.50;14.65;;;;;;;4.39;100.00;99010.00;5054499;28;20521;-91
2023/03/09 19:59:40;;;;;;;32.95;14.50;;;;;;;4.41;100.00;99006.28;5021895;28;20187;-90
2023/03/09 20:02:06;;;;;;;32.50;14.83;;;;;;;4.43;100.00;99007.72;5037669;28;20477;-91
2023/03/09 20:04:42;;;;;;;32.53;14.63;;;;;;;4.38;100.00;98991.44;5054062;28;20135;-91
2023/03/09 20:07:31;;;;;;;32.72;14.38;;;;;;;4.44;100.00;98984.34;5023234;28;20099;-91
2023/03/09 20:12:52;;;;;;;35.33;14.10;;;;;;;4.41;100.00;98972.19;5082974;28;20424;-91
2023/03/09 20:15:32;;;;;;;29.70;14.52;;;;;;;4.41;100.00;98960.63;5049854;28;20070;-90
2023/03/09 20:18:01;;;;;;;30.80;13.95;;;;;;;4.42;100.00;98952.34;5086672;28;20028;-91
2023/03/09 20:20:27;;;;;;;38.00;14.57;;;;;;;4.40;100.00;98951.75;5086781;28;20028;-91
2023/03/09 20:23:14;;;;;;;;;;;;;;;;;;;;;
2023/03/09 20:25:59;;;;;;;35.03;14.63;;;;;;;4.45;100.00;98945.72;5098336;28;20024;-90
2023/03/09 20:36:05;;;;;;;30.00;13.65;;;;;;;4.46;100.00;98925.88;5116945;28;20089;-90
2023/03/09 20:38:33;;;;;;;32.70;14.45;;;;;;;4.44;100.00;98927.97;5117655;28;20112;-91
2023/03/09 20:51:30;;;;;;;32.72;13.77;;;;;;;4.46;100.00;98897.16;5053924;28;20124;-91
2023/03/09 20:57:23;;;;;;;33.47;14.55;;;;;;;4.46;100.00;98899.84;5115035;28;20047;-91
2023/03/09 20:59:54;;;;;;;31.65;14.30;;;;;;;4.44;100.00;98890.38;5064960;28;20055;-91
2023/03/09 21:02:26;;;;;;;27.83;12.03;;;;;;;4.50;100.00;98881.41;5098740;28;20379;-91
2023/03/09 21:05:14;;;;;;;28.48;13.07;;;;;;;4.51;100.00;98869.63;5097509;28;20031;-90
2023/03/09 21:14:27;;;;;;;33.47;13.73;;;;;;;4.56;100.00;98848.28;5115997;28;20035;-89
2023/03/09 21:16:53;;;;;;;31.97;13.27;;;;;;;4.66;100.00;98853.13;5097319;28;20098;-89
2023/03/09 21:23:13;;;;;;;;;;;;;;;;;;;;;
2023/03/09 21:25:48;;;;;;;33.63;14.88;;;;;;;4.73;100.00;98825.13;5111803;28;20036;-89
2023/03/09 21:28:16;;;;;;;34.83;14.80;;;;;;;4.76;100.00;98823.06;5115575;28;20032;-89
2023/03/09 21:30:42;;;;;;;40.07;14.73;;;;;;;4.81;100.00;98810.56;5080398;28;20104;-90
2023/03/09 21:40:09;;;;;;;33.58;14.13;;;;;;;4.90;100.00;98797.63;5072721;28;20484;-90
2023/03/09 21:42:37;;;;;;;35.47;14.82;;;;;;;4.92;100.00;98790.16;5055727;28;20076;-90
2023/03/09 21:45:08;;;;;;;35.88;15.52;;;;;;;4.96;100.00;98787.81;5055897;28;20171;-91
2023/03/09 21:47:34;;;;;;;37.88;15.27;;;;;;;5.02;100.00;98784.22;5056081;28;20492;-90
2023/03/09 21:50:13;;;;;;;33.28;14.30;;;;;;;5.00;100.00;98765.63;5055778;28;20137;-91